createdAt,value
2022-12-16T00:01:08.413Z,101079.13
2022-12-16T00:03:36.935Z,101089.09
2022-12-16T00:06:05.132Z,101083.63
2022-12-16T00:08:34.903Z,101078.38
2022-12-16T00:11:02.933Z,101084.47
2022-12-16T00:13:33.888Z,101091.38
2022-12-16T00:16:05.106Z,101092.91
2022-12-16T00:18:32.718Z,101091.13
2022-12-16T00:21:00.725Z,101094.59
2022-12-16T00:23:28.869Z,101098.88
2022-12-16T00:25:56.956Z,101104.25
2022-12-16T00:28:24.996Z,101096.38
2022-12-16T00:30:56.221Z,101098.31
2022-12-16T00:33:25.888Z,101101.03
2022-12-16T00:35:54.733Z,101102.34
2022-12-16T00:38:23.658Z,101094.25
2022-12-16T00:40:52.150Z,101098.88
2022-12-16T00:43:20.630Z,101102.09
2022-12-16T00:45:48.941Z,101103.78
2022-12-16T00:48:18.072Z,101113.19
2022-12-16T00:50:47.287Z,101110.44
2022-12-16T00:53:15.162Z,101106.03
2022-12-16T00:55:43.200Z,101106.97
2022-12-16T00:58:10.770Z,101099.00
2022-12-16T01:00:38.671Z,101099.84
2022-12-16T01:03:06.849Z,101104.34
2022-12-16T01:05:38.336Z,101103.41
2022-12-16T01:08:06.167Z,101109.34
2022-12-16T01:10:33.824Z,101111.97
2022-12-16T01:13:01.388Z,101120.69
2022-12-16T01:15:28.943Z,101127.59
2022-12-16T01:17:56.522Z,101126.63
2022-12-16T01:20:24.128Z,101128.22
2022-12-16T01:22:53.041Z,101134.03
2022-12-16T01:25:22.451Z,101135.84
2022-12-16T01:27:50.236Z,101151.19
2022-12-16T01:30:18.177Z,101142.50
2022-12-16T01:32:45.733Z,101150.25
2022-12-16T01:35:36.417Z,101147.72
2022-12-16T01:38:02.417Z,101152.03
2022-12-16T01:40:30.855Z,101154.41
2022-12-16T01:42:58.396Z,101156.19
2022-12-16T01:45:32.950Z,101161.44
2022-12-16T01:48:04.772Z,101159.53
2022-12-16T01:50:32.982Z,101163.97
2022-12-16T01:53:06.461Z,101160.59
2022-12-16T01:55:38.304Z,101166.69
2022-12-16T01:58:10.239Z,101174.69
2022-12-16T02:00:39.507Z,101175.41
2022-12-16T02:03:07.704Z,101172.88
2022-12-16T02:05:39.417Z,101164.31
2022-12-16T02:08:13.985Z,101171.94
2022-12-16T02:10:55.504Z,101171.00
2022-12-16T02:13:34.784Z,101174.31
2022-12-16T02:16:13.885Z,101175.88
2022-12-16T02:18:51.883Z,101172.28
2022-12-16T02:21:31.545Z,101176.47
2022-12-16T02:24:36.288Z,101179.22
2022-12-16T02:27:46.397Z,101184.72
2022-12-16T02:30:43.231Z,101186.59
2022-12-16T02:33:24.535Z,101195.91
2022-12-16T02:35:58.365Z,101196.97
2022-12-16T02:38:31.777Z,101193.75
2022-12-16T02:41:03.834Z,101201.13
2022-12-16T02:43:51.448Z,101201.25
2022-12-16T02:46:24.756Z,101192.19
2022-12-16T02:48:52.378Z,101194.56
2022-12-16T02:51:21.229Z,101204.13
2022-12-16T02:53:51.496Z,101198.03
2022-12-16T02:56:31.132Z,101206.75
2022-12-16T02:59:09.168Z,101198.88
2022-12-16T03:01:42.474Z,101209.38
2022-12-16T03:04:15.237Z,101209.97
2022-12-16T03:06:49.145Z,101215.22
2022-12-16T03:09:22.174Z,101216.91
2022-12-16T03:11:52.277Z,101214.28
2022-12-16T03:14:22.781Z,101212.22
2022-12-16T03:16:52.681Z,101218.44
2022-12-16T03:19:22.607Z,101226.31
2022-12-16T03:21:55.880Z,101225.94
2022-12-16T03:24:24.639Z,101222.47
2022-12-16T03:26:57.574Z,101227.47
2022-12-16T03:29:31.037Z,101224.75
2022-12-16T03:32:03.777Z,101231.88
2022-12-16T03:34:35.868Z,101232.03
2022-12-16T03:37:06.225Z,101234.88
2022-12-16T03:39:36.248Z,101227.94
2022-12-16T03:42:05.325Z,101233.44
2022-12-16T03:44:33.224Z,101244.06
2022-12-16T03:47:02.172Z,101245.84
2022-12-16T03:49:29.745Z,101249.63
2022-12-16T03:51:57.318Z,101241.06
2022-12-16T03:54:25.709Z,101246.91
2022-12-16T03:56:54.228Z,101248.31
2022-12-16T03:59:21.844Z,101259.66
2022-12-16T04:01:50.036Z,101260.59
2022-12-16T04:04:19.577Z,101255.25
2022-12-16T04:07:07.157Z,101257.97
2022-12-16T04:09:34.695Z,101263.97
2022-12-16T04:12:19.920Z,101263.22
2022-12-16T04:15:05.057Z,101258.72
2022-12-16T04:17:50.320Z,101262.41
2022-12-16T04:20:37.774Z,101271.91
2022-12-16T04:23:23.503Z,101266.44
2022-12-16T04:25:51.420Z,101264.56
2022-12-16T04:28:18.975Z,101270.75
2022-12-16T04:30:46.609Z,101268.84
2022-12-16T04:33:33.960Z,101273.25
2022-12-16T04:36:20.797Z,101277.31
2022-12-16T04:39:06.096Z,101281.72
2022-12-16T04:41:51.624Z,101286.13
2022-12-16T04:44:36.940Z,101284.47
2022-12-16T04:47:22.112Z,101282.44
2022-12-16T04:50:07.451Z,101285.88
2022-12-16T04:52:54.132Z,101293.28
2022-12-16T04:55:39.208Z,101288.75
2022-12-16T04:58:24.356Z,101290.31
2022-12-16T05:01:15.139Z,101299.97
2022-12-16T05:04:00.599Z,101298.28
2022-12-16T05:06:45.561Z,101292.19
2022-12-16T05:09:32.157Z,101296.50
2022-12-16T05:12:19.703Z,101293.75
2022-12-16T05:15:04.740Z,101304.38
2022-12-16T05:17:50.087Z,101300.91
2022-12-16T05:20:35.285Z,101294.22
2022-12-16T05:23:35.495Z,101303.91
2022-12-16T05:26:21.930Z,101295.78
2022-12-16T05:29:06.731Z,101300.91
2022-12-16T05:31:52.004Z,101310.56
2022-12-16T05:34:37.255Z,101310.56
2022-12-16T05:37:22.206Z,101321.19
2022-12-16T05:40:07.401Z,101316.66
2022-12-16T05:42:54.087Z,101331.44
2022-12-16T05:45:50.673Z,101330.59
2022-12-16T05:48:35.500Z,101329.75
2022-12-16T05:51:20.733Z,101335.84
2022-12-16T05:54:05.989Z,101333.22
2022-12-16T05:56:50.951Z,101337.00
2022-12-16T05:59:37.504Z,101342.50
2022-12-16T06:02:23.419Z,101340.31
2022-12-16T06:05:08.777Z,101342.38
2022-12-16T06:07:54.080Z,101343.31
2022-12-16T06:10:44.825Z,101342.06
2022-12-16T06:13:30.415Z,101347.09
2022-12-16T06:16:17.011Z,101348.06
2022-12-16T06:19:10.393Z,101348.06
2022-12-16T06:21:55.572Z,101363.66
2022-12-16T06:24:40.804Z,101360.19
2022-12-16T06:27:25.201Z,101367.22
2022-12-16T06:30:10.497Z,101368.41
2022-12-16T06:32:57.120Z,101377.22
2022-12-16T06:35:42.057Z,101381.84
2022-12-16T06:38:27.328Z,101381.63
2022-12-16T06:41:12.715Z,101381.75
2022-12-16T06:43:57.999Z,101387.84
2022-12-16T06:46:43.004Z,101392.47
2022-12-16T06:49:29.557Z,101389.84
2022-12-16T06:52:23.289Z,101402.81
2022-12-16T06:55:08.221Z,101402.81
2022-12-16T06:57:53.533Z,101401.97
2022-12-16T07:00:38.970Z,101405.22
2022-12-16T07:03:24.058Z,101410.38
2022-12-16T07:06:12.923Z,101414.75
2022-12-16T07:08:58.452Z,101420.84
2022-12-16T07:11:43.700Z,101426.19
2022-12-16T07:14:28.984Z,101429.44
2022-12-16T07:17:17.327Z,101441.59
2022-12-16T07:20:02.876Z,101449.34
2022-12-16T07:22:58.454Z,101448.28
2022-12-16T07:25:47.996Z,101451.72
2022-12-16T07:28:33.140Z,101464.75
2022-12-16T07:31:18.262Z,101459.72
2022-12-16T07:34:03.556Z,101464.34
2022-12-16T07:36:53.882Z,101466.13
2022-12-16T07:39:40.380Z,101473.91
2022-12-16T07:42:25.587Z,101472.09
2022-12-16T07:45:10.645Z,101483.53
2022-12-16T07:47:55.873Z,101482.34
2022-12-16T07:50:41.229Z,101490.13
2022-12-16T07:53:31.085Z,101504.56
2022-12-16T07:56:17.852Z,101508.66
2022-12-16T07:59:03.084Z,101506.84
2022-12-16T08:01:47.585Z,101510.31
2022-12-16T08:04:32.941Z,101516.91
2022-12-16T08:07:18.280Z,101520.28
2022-12-16T08:10:03.189Z,101526.56
2022-12-16T08:12:49.758Z,101526.50
2022-12-16T08:15:34.668Z,101536.38
2022-12-16T08:18:20.203Z,101535.75
2022-12-16T08:21:07.872Z,101532.78
2022-12-16T08:23:53.815Z,101541.41
2022-12-16T08:26:40.023Z,101527.81
2022-12-16T08:29:43.676Z,101535.38
2022-12-16T08:32:29.989Z,101549.13
2022-12-16T08:35:15.024Z,101554.03
2022-12-16T08:38:00.236Z,101556.31
2022-12-16T08:40:50.792Z,101557.88
2022-12-16T08:43:36.643Z,101561.97
2022-12-16T08:46:23.736Z,101572.25
2022-12-16T08:49:09.020Z,101578.00
2022-12-16T08:51:54.200Z,101573.16
2022-12-16T08:54:41.007Z,101570.78
2022-12-16T08:57:26.192Z,101572.97
2022-12-16T09:00:11.497Z,101573.81
2022-12-16T09:02:58.302Z,101572.03
2022-12-16T09:05:43.814Z,101574.06
2022-12-16T09:08:29.024Z,101580.22
2022-12-16T09:11:14.276Z,101582.28
2022-12-16T09:13:59.676Z,101582.75
2022-12-16T09:16:44.738Z,101581.25
2022-12-16T09:19:31.505Z,101582.94
2022-12-16T09:22:16.750Z,101589.91
2022-12-16T09:25:01.743Z,101592.78
2022-12-16T09:27:47.101Z,101590.66
2022-12-16T09:30:32.231Z,101604.53
2022-12-16T09:33:17.493Z,101603.09
2022-12-16T09:36:03.719Z,101605.75
2022-12-16T09:38:48.225Z,101608.50
2022-12-16T09:41:53.869Z,101615.69
2022-12-16T09:44:50.645Z,101620.56
2022-12-16T09:47:47.975Z,101614.13
2022-12-16T09:50:39.744Z,101619.97
2022-12-16T09:53:31.667Z,101617.00
2022-12-16T09:56:16.976Z,101618.63
2022-12-16T09:59:06.373Z,101619.38
2022-12-16T10:01:55.907Z,101628.44
2022-12-16T10:04:42.012Z,101630.22
2022-12-16T10:07:34.772Z,101619.47
2022-12-16T10:10:34.780Z,101626.06
2022-12-16T10:13:32.002Z,101629.03
2022-12-16T10:16:30.570Z,101631.56
2022-12-16T10:19:24.496Z,101626.06
2022-12-16T10:22:20.231Z,101629.78
2022-12-16T10:25:14.219Z,101637.28
2022-12-16T10:28:12.464Z,101628.09
2022-12-16T10:30:57.706Z,101623.41
2022-12-16T10:33:45.970Z,101626.28
2022-12-16T10:36:34.619Z,101630.91
2022-12-16T10:39:23.528Z,101629.34
2022-12-16T10:42:12.340Z,101631.72
2022-12-16T10:45:09.231Z,101630.28
2022-12-16T10:47:54.476Z,101625.84
2022-12-16T10:50:40.241Z,101627.59
2022-12-16T10:53:32.462Z,101635.59
2022-12-16T10:56:29.721Z,101634.69
2022-12-16T10:59:18.981Z,101634.19
2022-12-16T11:02:15.108Z,101641.50
2022-12-16T11:05:00.981Z,101639.44
2022-12-16T11:07:51.958Z,101630.69
2022-12-16T11:10:47.429Z,101633.69
2022-12-16T11:13:41.431Z,101639.44
2022-12-16T11:16:33.554Z,101633.41
2022-12-16T11:19:20.317Z,101631.63
2022-12-16T11:22:05.694Z,101640.34
2022-12-16T11:24:51.351Z,101639.53
2022-12-16T11:27:38.570Z,101645.16
2022-12-16T11:30:35.468Z,101654.53
2022-12-16T11:33:30.202Z,101648.09
2022-12-16T11:36:25.837Z,101653.69
2022-12-16T11:39:11.492Z,101648.31
2022-12-16T11:41:59.660Z,101645.59
2022-12-16T11:44:49.285Z,101654.78
2022-12-16T11:47:41.197Z,101654.56
2022-12-16T11:50:32.001Z,101654.94
2022-12-16T11:53:27.957Z,101659.94
2022-12-16T11:56:16.410Z,101654.31
2022-12-16T11:59:05.076Z,101652.78
2022-12-16T12:01:55.442Z,101649.66
2022-12-16T12:04:41.466Z,101662.19
2022-12-16T12:07:45.365Z,101651.28
2022-12-16T12:10:49.948Z,101657.50
2022-12-16T12:13:47.716Z,101658.34
2022-12-16T12:16:43.303Z,101663.13
2022-12-16T12:19:33.624Z,101659.47
2022-12-16T12:22:27.624Z,101657.94
2022-12-16T12:25:20.698Z,101666.44
2022-12-16T12:28:14.013Z,101660.38
2022-12-16T12:31:12.912Z,101669.72
2022-12-16T12:34:09.144Z,101666.75
2022-12-16T12:36:59.010Z,101669.97
2022-12-16T12:39:52.734Z,101676.28
2022-12-16T12:42:49.562Z,101676.91
2022-12-16T12:46:04.549Z,101687.91
2022-12-16T12:48:57.550Z,101687.53
2022-12-16T12:51:49.463Z,101677.34
2022-12-16T12:54:47.336Z,101676.16
2022-12-16T12:57:37.093Z,101688.34
2022-12-16T13:00:24.332Z,101687.94
2022-12-16T13:03:20.542Z,101689.13
2022-12-16T13:06:06.441Z,101693.66
2022-12-16T13:09:01.790Z,101689.72
2022-12-16T13:11:47.089Z,101689.84
2022-12-16T13:15:21.160Z,101694.34
2022-12-16T13:18:38.487Z,101695.72
2022-12-16T13:21:43.784Z,101695.44
2022-12-16T13:24:51.465Z,101694.56
2022-12-16T13:27:36.904Z,101705.41
2022-12-16T13:30:36.660Z,101711.94
2022-12-16T13:33:24.979Z,101711.22
2022-12-16T13:36:12.515Z,101715.41
2022-12-16T13:39:05.003Z,101713.00
2022-12-16T13:42:17.256Z,101718.38
2022-12-16T13:45:15.704Z,101718.06
2022-12-16T13:48:22.717Z,101715.88
2022-12-16T13:51:18.069Z,101720.84
2022-12-16T13:54:08.263Z,101716.16
2022-12-16T13:56:56.721Z,101724.78
2022-12-16T13:59:46.854Z,101732.56
2022-12-16T14:02:48.297Z,101728.06
2022-12-16T14:05:37.611Z,101742.56
2022-12-16T14:08:24.791Z,101748.44
2022-12-16T14:11:17.452Z,101751.19
2022-12-16T14:14:17.225Z,101744.31
2022-12-16T14:17:10.052Z,101744.84
2022-12-16T14:20:12.512Z,101741.03
2022-12-16T14:23:14.912Z,101751.72
2022-12-16T14:26:15.764Z,101751.38
2022-12-16T14:29:05.048Z,101749.97
2022-12-16T14:31:55.451Z,101748.66
2022-12-16T14:34:45.142Z,101750.97
2022-12-16T14:37:34.852Z,101755.34
2022-12-16T14:40:20.698Z,101762.25
2022-12-16T14:43:12.899Z,101767.06
2022-12-16T14:46:06.343Z,101761.44
2022-12-16T14:48:54.060Z,101771.31
2022-12-16T14:51:48.275Z,101779.41
2022-12-16T14:54:39.732Z,101776.97
2022-12-16T14:57:30.600Z,101785.16
2022-12-16T15:00:20.589Z,101779.53
2022-12-16T15:03:09.115Z,101774.81
2022-12-16T15:05:56.805Z,101788.38
2022-12-16T15:08:44.417Z,101785.53
2022-12-16T15:11:34.023Z,101801.59
2022-12-16T15:14:20.958Z,101804.47
2022-12-16T15:17:07.668Z,101804.72
2022-12-16T15:20:03.365Z,101802.19
2022-12-16T15:22:49.350Z,101808.66
2022-12-16T15:25:41.112Z,101812.59
2022-12-16T15:28:42.669Z,101819.31
2022-12-16T15:31:42.122Z,101827.09
2022-12-16T15:34:42.760Z,101825.44
2022-12-16T15:37:40.259Z,101824.56
2022-12-16T15:40:41.532Z,101822.78
2022-12-16T15:43:39.809Z,101838.25
2022-12-16T15:46:25.488Z,101832.78
2022-12-16T15:49:10.728Z,101833.25
2022-12-16T15:52:03.503Z,101834.75
2022-12-16T15:54:48.958Z,101844.00
2022-12-16T15:57:46.773Z,101843.63
2022-12-16T16:00:42.220Z,101852.66
2022-12-16T16:03:40.501Z,101855.84
2022-12-16T16:06:35.889Z,101855.41
2022-12-16T16:09:30.198Z,101855.81
2022-12-16T16:12:15.503Z,101868.31
2022-12-16T16:15:01.832Z,101860.97
2022-12-16T16:17:47.144Z,101868.47
2022-12-16T16:20:33.437Z,101867.25
2022-12-16T16:23:18.631Z,101875.69
2022-12-16T16:26:05.149Z,101870.16
2022-12-16T16:28:50.452Z,101873.94
2022-12-16T16:31:36.902Z,101871.63
2022-12-16T16:34:22.322Z,101876.34
2022-12-16T16:37:11.437Z,101881.91
2022-12-16T16:39:56.128Z,101890.03
2022-12-16T16:42:41.481Z,101891.84
2022-12-16T16:45:24.007Z,101891.91
2022-12-16T16:48:25.256Z,101894.44
2022-12-16T16:51:14.624Z,101902.38
2022-12-16T16:54:00.320Z,101910.19
2022-12-16T16:56:47.189Z,101908.56
2022-12-16T16:59:32.571Z,101906.97
2022-12-16T17:02:17.946Z,101909.69
2022-12-16T17:05:04.706Z,101903.84
2022-12-16T17:07:53.751Z,101914.47
2022-12-16T17:10:39.247Z,101911.38
2022-12-16T17:13:24.557Z,101921.81
2022-12-16T17:16:09.658Z,101924.31
2022-12-16T17:18:54.603Z,101915.47
2022-12-16T17:21:40.910Z,101928.06
2022-12-16T17:24:26.136Z,101926.84
2022-12-16T17:27:11.244Z,101930.66
2022-12-16T17:29:58.756Z,101938.19
2022-12-16T17:32:43.760Z,101943.25
2022-12-16T17:35:30.124Z,101934.69
2022-12-16T17:38:16.643Z,101931.44
2022-12-16T17:41:01.968Z,101931.56
2022-12-16T17:43:46.992Z,101936.81
2022-12-16T17:46:32.335Z,101943.03
2022-12-16T17:49:17.406Z,101939.75
2022-12-16T17:52:02.918Z,101944.28
2022-12-16T17:54:45.797Z,101942.81
2022-12-16T17:57:31.006Z,101948.25
2022-12-16T18:00:16.372Z,101952.22
2022-12-16T18:03:01.658Z,101947.81
2022-12-16T18:05:46.993Z,101948.19
2022-12-16T18:08:32.348Z,101951.94
2022-12-16T18:11:18.761Z,101944.25
2022-12-16T18:14:03.734Z,101947.72
2022-12-16T18:16:49.034Z,101949.56
2022-12-16T18:19:35.015Z,101946.28
2022-12-16T18:22:20.649Z,101950.78
2022-12-16T18:25:05.997Z,101953.50
2022-12-16T18:27:54.148Z,101957.84
2022-12-16T18:30:39.985Z,101963.25
2022-12-16T18:33:25.287Z,101965.03
2022-12-16T18:36:10.563Z,101960.97
2022-12-16T18:38:55.737Z,101962.94
2022-12-16T18:41:41.496Z,101974.19
2022-12-16T18:44:31.536Z,101972.66
2022-12-16T18:47:16.827Z,101972.84
2022-12-16T18:50:04.301Z,101968.63
2022-12-16T18:52:49.293Z,101976.59
2022-12-16T18:55:34.537Z,101981.13
2022-12-16T18:58:50.836Z,101984.84
2022-12-16T19:01:28.498Z,101979.06
2022-12-16T19:04:11.057Z,101979.22
2022-12-16T19:06:56.369Z,101986.25
2022-12-16T19:09:41.603Z,101984.59
2022-12-16T19:12:26.776Z,101978.81
2022-12-16T19:15:11.888Z,101978.97
2022-12-16T19:17:58.458Z,101983.53
2022-12-16T19:20:44.339Z,101983.91
2022-12-16T19:23:32.700Z,101987.78
2022-12-16T19:26:19.074Z,101990.47
2022-12-16T19:29:04.440Z,101990.47
2022-12-16T19:31:49.930Z,102002.59
2022-12-16T19:34:36.443Z,101997.50
2022-12-16T19:37:21.680Z,102002.59
2022-12-16T19:40:06.809Z,102001.75
2022-12-16T19:42:51.824Z,102008.53
2022-12-16T19:45:37.101Z,102004.06
2022-12-16T19:48:23.988Z,102015.97
2022-12-16T19:51:16.543Z,102019.31
2022-12-16T19:54:02.093Z,102022.63
2022-12-16T19:56:55.282Z,102024.25
2022-12-16T19:59:40.697Z,102023.22
2022-12-16T20:02:29.525Z,102024.94
2022-12-16T20:05:14.763Z,102029.16
2022-12-16T20:08:01.183Z,102029.06
2022-12-16T20:10:46.450Z,102015.19
2022-12-16T20:13:32.114Z,102021.13
2022-12-16T20:16:20.362Z,102020.19
2022-12-16T20:19:05.628Z,102027.91
2022-12-16T20:21:52.499Z,102030.53
2022-12-16T20:24:43.394Z,102024.56
2022-12-16T20:27:28.653Z,102033.88
2022-12-16T20:30:14.011Z,102043.38
2022-12-16T20:32:58.993Z,102042.78
2022-12-16T20:35:44.445Z,102047.44
2022-12-16T20:38:29.709Z,102053.47
2022-12-16T20:41:20.266Z,102054.34
2022-12-16T20:44:05.632Z,102053.63
2022-12-16T20:46:50.957Z,102058.81
2022-12-16T20:49:36.666Z,102063.81
2022-12-16T20:52:21.750Z,102064.44
2022-12-16T20:55:06.739Z,102072.94
2022-12-16T20:57:53.397Z,102073.75
2022-12-16T21:00:41.680Z,102072.78
2022-12-16T21:03:27.728Z,102081.31
2022-12-16T21:06:13.597Z,102079.41
2022-12-16T21:08:58.970Z,102088.63
2022-12-16T21:11:52.444Z,102083.25
2022-12-16T21:14:43.143Z,102080.47
2022-12-16T21:17:28.254Z,102078.53
2022-12-16T21:20:13.697Z,102086.06
2022-12-16T21:22:58.653Z,102091.91
2022-12-16T21:25:43.944Z,102094.25
2022-12-16T21:28:30.204Z,102100.97
2022-12-16T21:31:17.656Z,102096.47
2022-12-16T21:34:02.920Z,102099.72
2022-12-16T21:36:48.069Z,102105.56
2022-12-16T21:39:33.445Z,102109.50
2022-12-16T21:42:18.641Z,102113.38
2022-12-16T21:45:03.909Z,102105.31
2022-12-16T21:47:46.727Z,102103.22
2022-12-16T21:50:32.956Z,102105.53
2022-12-16T21:53:18.369Z,102107.81
2022-12-16T21:56:10.130Z,102103.97
2022-12-16T21:58:55.325Z,102108.75
2022-12-16T22:01:52.151Z,102109.28
2022-12-16T22:04:38.761Z,102115.03
2022-12-16T22:07:24.084Z,102108.72
2022-12-16T22:10:09.416Z,102112.69
2022-12-16T22:12:56.305Z,102120.94
2022-12-16T22:15:41.836Z,102112.94
2022-12-16T22:18:27.029Z,102120.31
2022-12-16T22:21:17.177Z,102122.53
2022-12-16T22:24:02.549Z,102118.75
2022-12-16T22:26:47.698Z,102117.56
2022-12-16T22:29:33.153Z,102119.91
2022-12-16T22:32:18.870Z,102122.25
2022-12-16T22:35:04.100Z,102129.81
2022-12-16T22:37:50.447Z,102124.47
2022-12-16T22:40:35.633Z,102130.31
2022-12-16T22:43:20.484Z,102138.06
2022-12-16T22:46:05.920Z,102125.84
2022-12-16T22:48:51.184Z,102130.16
2022-12-16T22:51:37.012Z,102130.19
2022-12-16T22:54:23.505Z,102122.41
2022-12-16T22:57:08.880Z,102129.41
2022-12-16T22:59:54.568Z,102136.47
2022-12-16T23:02:41.882Z,102138.06
2022-12-16T23:08:32.213Z,102140.47
2022-12-16T23:11:18.806Z,102144.81
2022-12-16T23:14:03.768Z,102147.38
2022-12-16T23:16:49.160Z,102151.63
2022-12-16T23:19:34.411Z,102156.78
2022-12-16T23:22:19.479Z,102149.88
2022-12-16T23:25:04.630Z,102152.59
2022-12-16T23:27:59.297Z,102148.38
2022-12-16T23:30:44.717Z,102152.06
2022-12-16T23:33:29.759Z,102152.97
2022-12-16T23:36:14.952Z,102158.25
2022-12-16T23:39:00.257Z,102157.28
2022-12-16T23:41:45.212Z,102164.22
2022-12-16T23:44:31.740Z,102160.72
2022-12-16T23:47:16.874Z,102160.72
2022-12-16T23:50:02.298Z,102147.66
2022-12-16T23:52:47.551Z,102144.22
2022-12-16T23:55:32.601Z,102144.38
2022-12-16T23:58:18.444Z,102149.78
